sensor_id;sensor_type;location;lat;lon;timestamp;pressure;altitude;pressure_sealevel;temperature;humidity
25759;BME280;13604;52.496;13.456;2022-08-11T00:01:53;102110.59;;;18.82;61.68
25759;BME280;13604;52.496;13.456;2022-08-11T00:04:49;102106.28;;;18.81;62.24
25759;BME280;13604;52.496;13.456;2022-08-11T00:07:31;102104.69;;;18.78;62.09
25759;BME280;13604;52.496;13.456;2022-08-11T00:10:24;102098.94;;;18.73;61.64
25759;BME280;13604;52.496;13.456;2022-08-11T00:13:08;102092.34;;;18.79;61.38
25759;BME280;13604;52.496;13.456;2022-08-11T00:16:02;102103.38;;;18.73;62.00
25759;BME280;13604;52.496;13.456;2022-08-11T00:19:00;102105.84;;;18.63;62.03
25759;BME280;13604;52.496;13.456;2022-08-11T00:21:45;102102.56;;;18.60;62.29
25759;BME280;13604;52.496;13.456;2022-08-11T00:24:23;102104.69;;;18.54;62.83
25759;BME280;13604;52.496;13.456;2022-08-11T00:27:01;102103.34;;;18.49;63.03
25759;BME280;13604;52.496;13.456;2022-08-11T00:29:57;102109.16;;;18.41;63.14
25759;BME280;13604;52.496;13.456;2022-08-11T00:32:34;102104.09;;;18.38;63.30
25759;BME280;13604;52.496;13.456;2022-08-11T00:35:34;102107.81;;;18.36;63.23
25759;BME280;13604;52.496;13.456;2022-08-11T00:38:41;102099.88;;;18.36;63.34
25759;BME280;13604;52.496;13.456;2022-08-11T00:45:12;102105.63;;;18.30;64.14
25759;BME280;13604;52.496;13.456;2022-08-11T00:48:23;102105.44;;;18.20;64.76
25759;BME280;13604;52.496;13.456;2022-08-11T00:54:26;102106.28;;;18.21;64.68
25759;BME280;13604;52.496;13.456;2022-08-11T01:00:11;102107.53;;;18.28;64.05
25759;BME280;13604;52.496;13.456;2022-08-11T01:03:17;102109.88;;;18.19;64.36
25759;BME280;13604;52.496;13.456;2022-08-11T01:06:29;102120.00;;;18.13;64.54
25759;BME280;13604;52.496;13.456;2022-08-11T01:22:19;102116.13;;;17.93;66.44
25759;BME280;13604;52.496;13.456;2022-08-11T01:31:59;102119.81;;;17.91;66.45
25759;BME280;13604;52.496;13.456;2022-08-11T01:38:39;102129.22;;;17.82;66.58
25759;BME280;13604;52.496;13.456;2022-08-11T01:45:15;102120.56;;;17.67;68.06
25759;BME280;13604;52.496;13.456;2022-08-11T01:48:21;102119.84;;;17.65;67.93
25759;BME280;13604;52.496;13.456;2022-08-11T01:51:16;102118.78;;;17.55;69.00
25759;BME280;13604;52.496;13.456;2022-08-11T01:54:26;102116.34;;;17.52;69.05
25759;BME280;13604;52.496;13.456;2022-08-11T01:57:11;102112.22;;;17.48;69.32
25759;BME280;13604;52.496;13.456;2022-08-11T01:59:53;102114.34;;;17.43;69.42
25759;BME280;13604;52.496;13.456;2022-08-11T02:10:42;102106.44;;;17.30;70.07
25759;BME280;13604;52.496;13.456;2022-08-11T02:13:50;102109.06;;;17.30;70.21
25759;BME280;13604;52.496;13.456;2022-08-11T02:16:46;102112.75;;;17.28;70.46
25759;BME280;13604;52.496;13.456;2022-08-11T02:19:23;102106.81;;;17.24;70.65
25759;BME280;13604;52.496;13.456;2022-08-11T02:22:22;102111.47;;;17.21;70.49
25759;BME280;13604;52.496;13.456;2022-08-11T02:25:39;102104.06;;;17.13;71.19
25759;BME280;13604;52.496;13.456;2022-08-11T02:31:32;102100.81;;;17.09;71.25
25759;BME280;13604;52.496;13.456;2022-08-11T02:34:31;102098.81;;;17.00;72.00
25759;BME280;13604;52.496;13.456;2022-08-11T02:37:25;102096.38;;;16.97;71.68
25759;BME280;13604;52.496;13.456;2022-08-11T02:40:10;102096.66;;;16.93;72.49
25759;BME280;13604;52.496;13.456;2022-08-11T02:45:33;102093.28;;;16.91;72.18
25759;BME280;13604;52.496;13.456;2022-08-11T02:51:23;102096.97;;;16.88;72.86
25759;BME280;13604;52.496;13.456;2022-08-11T03:12:24;102104.94;;;16.74;74.43
25759;BME280;13604;52.496;13.456;2022-08-11T03:14:48;102095.84;;;16.65;74.62
25759;BME280;13604;52.496;13.456;2022-08-11T03:24:04;102092.63;;;16.60;74.43
25759;BME280;13604;52.496;13.456;2022-08-11T03:27:33;102097.84;;;16.62;74.76
25759;BME280;13604;52.496;13.456;2022-08-11T03:31:09;102105.03;;;16.58;75.37
25759;BME280;13604;52.496;13.456;2022-08-11T03:34:24;102104.19;;;16.58;75.24
25759;BME280;13604;52.496;13.456;2022-08-11T03:38:01;102098.50;;;16.51;75.09
25759;BME280;13604;52.496;13.456;2022-08-11T03:41:02;102100.78;;;16.43;75.56
25759;BME280;13604;52.496;13.456;2022-08-11T03:44:49;102097.50;;;16.39;75.89
25759;BME280;13604;52.496;13.456;2022-08-11T03:50:42;102099.59;;;16.34;76.08
25759;BME280;13604;52.496;13.456;2022-08-11T03:59:38;102110.66;;;16.25;76.99
25759;BME280;13604;52.496;13.456;2022-08-11T04:06:41;102109.47;;;16.17;77.81
25759;BME280;13604;52.496;13.456;2022-08-11T04:13:08;102102.50;;;16.16;78.69
25759;BME280;13604;52.496;13.456;2022-08-11T04:16:15;102107.22;;;16.11;78.84
25759;BME280;13604;52.496;13.456;2022-08-11T04:25:36;102097.91;;;16.19;79.04
25759;BME280;13604;52.496;13.456;2022-08-11T04:31:59;102111.03;;;16.33;78.73
25759;BME280;13604;52.496;13.456;2022-08-11T04:35:18;102117.41;;;16.44;78.62
25759;BME280;13604;52.496;13.456;2022-08-11T04:38:44;102120.22;;;16.41;78.46
25759;BME280;13604;52.496;13.456;2022-08-11T04:45:05;102110.13;;;16.47;78.86
25759;BME280;13604;52.496;13.456;2022-08-11T04:48:50;102113.25;;;16.54;78.60
25759;BME280;13604;52.496;13.456;2022-08-11T05:00:55;102114.69;;;16.72;78.10
25759;BME280;13604;52.496;13.456;2022-08-11T05:04:02;102119.13;;;16.71;78.89
25759;BME280;13604;52.496;13.456;2022-08-11T05:07:18;102119.13;;;16.71;78.91
25759;BME280;13604;52.496;13.456;2022-08-11T05:10:17;102124.19;;;16.74;78.55
25759;BME280;13604;52.496;13.456;2022-08-11T05:12:54;102121.59;;;16.87;77.90
25759;BME280;13604;52.496;13.456;2022-08-11T05:15:52;102117.03;;;16.77;78.51
25759;BME280;13604;52.496;13.456;2022-08-11T05:18:58;102121.56;;;16.74;78.71
25759;BME280;13604;52.496;13.456;2022-08-11T05:21:53;102124.53;;;16.83;77.88
25759;BME280;13604;52.496;13.456;2022-08-11T05:25:11;102121.59;;;16.87;78.33
25759;BME280;13604;52.496;13.456;2022-08-11T05:28:11;102131.63;;;16.95;77.45
25759;BME280;13604;52.496;13.456;2022-08-11T05:31:07;102128.47;;;17.02;77.40
25759;BME280;13604;52.496;13.456;2022-08-11T05:33:58;102122.50;;;17.00;77.41
25759;BME280;13604;52.496;13.456;2022-08-11T05:37:03;102139.75;;;17.04;77.25
25759;BME280;13604;52.496;13.456;2022-08-11T05:39:37;102128.28;;;17.05;77.73
25759;BME280;13604;52.496;13.456;2022-08-11T05:42:22;102126.72;;;17.16;77.30
25759;BME280;13604;52.496;13.456;2022-08-11T05:45:12;102123.81;;;17.33;75.91
25759;BME280;13604;52.496;13.456;2022-08-11T05:47:59;102135.44;;;17.56;74.78
25759;BME280;13604;52.496;13.456;2022-08-11T05:51:00;102137.03;;;17.71;74.49
25759;BME280;13604;52.496;13.456;2022-08-11T05:53:51;102138.06;;;17.81;74.46
25759;BME280;13604;52.496;13.456;2022-08-11T05:56:42;102144.94;;;17.96;73.29
25759;BME280;13604;52.496;13.456;2022-08-11T05:59:13;102140.25;;;18.12;73.14
25759;BME280;13604;52.496;13.456;2022-08-11T06:01:41;102148.25;;;18.24;73.05
25759;BME280;13604;52.496;13.456;2022-08-11T06:04:19;102149.41;;;18.32;72.93
25759;BME280;13604;52.496;13.456;2022-08-11T06:07:00;102134.88;;;18.50;72.15
25759;BME280;13604;52.496;13.456;2022-08-11T06:09:36;102142.06;;;18.61;71.84
25759;BME280;13604;52.496;13.456;2022-08-11T06:12:08;102136.50;;;18.77;71.37
25759;BME280;13604;52.496;13.456;2022-08-11T06:14:42;102142.91;;;18.85;70.56
25759;BME280;13604;52.496;13.456;2022-08-11T06:17:09;102147.50;;;18.95;71.15
25759;BME280;13604;52.496;13.456;2022-08-11T06:19:41;102145.97;;;19.03;71.23
25759;BME280;13604;52.496;13.456;2022-08-11T06:22:11;102147.47;;;19.18;71.06
25759;BME280;13604;52.496;13.456;2022-08-11T06:24:41;102150.38;;;19.26;70.54
25759;BME280;13604;52.496;13.456;2022-08-11T06:27:21;102150.41;;;19.38;70.33
25759;BME280;13604;52.496;13.456;2022-08-11T06:29:49;102151.91;;;19.53;67.15
25759;BME280;13604;52.496;13.456;2022-08-11T06:32:15;102147.59;;;19.52;67.18
25759;BME280;13604;52.496;13.456;2022-08-11T06:40:36;102159.03;;;19.75;66.43
25759;BME280;13604;52.496;13.456;2022-08-11T06:43:46;102152.09;;;19.85;67.47
25759;BME280;13604;52.496;13.456;2022-08-11T06:46:24;102146.56;;;19.99;66.79
25759;BME280;13604;52.496;13.456;2022-08-11T06:48:52;102139.09;;;20.04;66.85
25759;BME280;13604;52.496;13.456;2022-08-11T06:51:24;102153.88;;;20.07;65.86
25759;BME280;13604;52.496;13.456;2022-08-11T06:54:16;102153.75;;;20.19;65.67
25759;BME280;13604;52.496;13.456;2022-08-11T06:56:55;102151.59;;;20.35;65.39
25759;BME280;13604;52.496;13.456;2022-08-11T06:59:41;102155.91;;;20.48;66.02
25759;BME280;13604;52.496;13.456;2022-08-11T07:02:51;102148.44;;;20.64;65.08
25759;BME280;13604;52.496;13.456;2022-08-11T07:05:44;102138.88;;;20.73;64.50
25759;BME280;13604;52.496;13.456;2022-08-11T07:08:39;102146.25;;;20.90;63.42
25759;BME280;13604;52.496;13.456;2022-08-11T07:14:37;102133.75;;;21.24;62.06
25759;BME280;13604;52.496;13.456;2022-08-11T07:17:27;102142.03;;;21.30;59.84
25759;BME280;13604;52.496;13.456;2022-08-11T07:20:00;102134.44;;;21.47;61.32
25759;BME280;13604;52.496;13.456;2022-08-11T07:22:53;102134.16;;;21.70;61.06
25759;BME280;13604;52.496;13.456;2022-08-11T07:25:40;102138.41;;;21.83;60.35
25759;BME280;13604;52.496;13.456;2022-08-11T07:28:32;102129.00;;;21.99;58.89
25759;BME280;13604;52.496;13.456;2022-08-11T07:31:25;102125.84;;;22.15;56.70
25759;BME280;13604;52.496;13.456;2022-08-11T07:34:03;102128.53;;;22.25;56.67
25759;BME280;13604;52.496;13.456;2022-08-11T07:36:41;102124.09;;;22.44;57.20
25759;BME280;13604;52.496;13.456;2022-08-11T07:39:36;102118.00;;;22.63;56.67
25759;BME280;13604;52.496;13.456;2022-08-11T07:42:53;102130.88;;;22.87;54.25
25759;BME280;13604;52.496;13.456;2022-08-11T07:45:53;102112.28;;;23.16;53.26
25759;BME280;13604;52.496;13.456;2022-08-11T07:48:53;102122.84;;;23.45;50.84
25759;BME280;13604;52.496;13.456;2022-08-11T07:51:38;102125.00;;;23.78;51.00
25759;BME280;13604;52.496;13.456;2022-08-11T07:54:26;102120.00;;;24.03;49.96
25759;BME280;13604;52.496;13.456;2022-08-11T07:57:10;102121.94;;;24.38;49.60
25759;BME280;13604;52.496;13.456;2022-08-11T07:59:58;102121.56;;;24.86;48.63
25759;BME280;13604;52.496;13.456;2022-08-11T08:02:53;102110.84;;;24.78;46.40
25759;BME280;13604;52.496;13.456;2022-08-11T08:05:49;102121.09;;;25.26;46.62
25759;BME280;13604;52.496;13.456;2022-08-11T08:08:40;102121.06;;;25.69;45.26
25759;BME280;13604;52.496;13.456;2022-08-11T08:11:30;102124.41;;;26.14;45.62
25759;BME280;13604;52.496;13.456;2022-08-11T08:14:18;102117.03;;;26.58;44.18
25759;BME280;13604;52.496;13.456;2022-08-11T08:17:26;102119.28;;;26.95;41.66
25759;BME280;13604;52.496;13.456;2022-08-11T08:20:13;102112.41;;;27.16;42.40
25759;BME280;13604;52.496;13.456;2022-08-11T08:23:01;102115.53;;;27.36;40.74
25759;BME280;13604;52.496;13.456;2022-08-11T08:25:41;102112.81;;;27.69;40.43
25759;BME280;13604;52.496;13.456;2022-08-11T08:28:32;102113.09;;;27.82;40.35
25759;BME280;13604;52.496;13.456;2022-08-11T08:31:40;102114.44;;;28.25;37.70
25759;BME280;13604;52.496;13.456;2022-08-11T08:34:16;102117.50;;;28.45;37.91
25759;BME280;13604;52.496;13.456;2022-08-11T08:37:00;102105.41;;;28.72;34.88
25759;BME280;13604;52.496;13.456;2022-08-11T08:39:50;102093.19;;;28.92;35.56
25759;BME280;13604;52.496;13.456;2022-08-11T08:42:36;102111.44;;;29.49;34.79
25759;BME280;13604;52.496;13.456;2022-08-11T08:45:12;102111.72;;;29.98;32.54
25759;BME280;13604;52.496;13.456;2022-08-11T08:51:52;102104.50;;;31.26;31.47
25759;BME280;13604;52.496;13.456;2022-08-11T08:54:47;102106.63;;;31.65;30.44
25759;BME280;13604;52.496;13.456;2022-08-11T08:57:22;102104.66;;;31.53;29.85
25759;BME280;13604;52.496;13.456;2022-08-11T09:00:02;102082.72;;;31.97;29.84
25759;BME280;13604;52.496;13.456;2022-08-11T09:02:33;102086.19;;;32.65;26.30
25759;BME280;13604;52.496;13.456;2022-08-11T09:05:32;102093.09;;;32.87;26.55
25759;BME280;13604;52.496;13.456;2022-08-11T09:08:02;102092.63;;;33.36;26.65
25759;BME280;13604;52.496;13.456;2022-08-11T09:10:35;102070.34;;;33.54;26.15
25759;BME280;13604;52.496;13.456;2022-08-11T09:13:06;102076.56;;;34.06;26.06
25759;BME280;13604;52.496;13.456;2022-08-11T09:15:37;102090.56;;;34.65;23.47
25759;BME280;13604;52.496;13.456;2022-08-11T09:18:10;102071.56;;;34.97;24.12
25759;BME280;13604;52.496;13.456;2022-08-11T09:20:52;102080.03;;;35.25;23.95
25759;BME280;13604;52.496;13.456;2022-08-11T09:23:32;102077.47;;;35.49;23.12
25759;BME280;13604;52.496;13.456;2022-08-11T09:26:20;102075.72;;;35.91;22.18
25759;BME280;13604;52.496;13.456;2022-08-11T09:29:09;102075.13;;;36.19;23.77
25759;BME280;13604;52.496;13.456;2022-08-11T09:31:40;102079.38;;;36.56;23.03
25759;BME280;13604;52.496;13.456;2022-08-11T09:34:13;102078.59;;;37.26;21.31
25759;BME280;13604;52.496;13.456;2022-08-11T09:36:44;102082.50;;;37.30;21.27
25759;BME280;13604;52.496;13.456;2022-08-11T09:39:29;102076.25;;;37.58;21.02
25759;BME280;13604;52.496;13.456;2022-08-11T09:42:15;102074.72;;;36.22;20.80
25759;BME280;13604;52.496;13.456;2022-08-11T09:44:42;102074.91;;;35.90;22.16
25759;BME280;13604;52.496;13.456;2022-08-11T09:47:24;102069.16;;;36.93;21.26
25759;BME280;13604;52.496;13.456;2022-08-11T09:49:54;102062.69;;;37.58;21.39
25759;BME280;13604;52.496;13.456;2022-08-11T09:52:31;102068.03;;;38.21;19.85
25759;BME280;13604;52.496;13.456;2022-08-11T09:55:02;102057.72;;;38.73;19.63
25759;BME280;13604;52.496;13.456;2022-08-11T09:57:32;102045.97;;;38.89;17.79
25759;BME280;13604;52.496;13.456;2022-08-11T10:00:16;102060.97;;;39.47;18.09
25759;BME280;13604;52.496;13.456;2022-08-11T10:02:47;102052.31;;;39.33;18.18
25759;BME280;13604;52.496;13.456;2022-08-11T10:05:19;102056.19;;;39.59;17.38
25759;BME280;13604;52.496;13.456;2022-08-11T10:08:04;102058.78;;;40.25;17.31
25759;BME280;13604;52.496;13.456;2022-08-11T10:10:35;102049.50;;;40.53;15.80
25759;BME280;13604;52.496;13.456;2022-08-11T10:13:06;102042.78;;;39.53;16.00
25759;BME280;13604;52.496;13.456;2022-08-11T10:15:34;102048.00;;;38.60;16.63
25759;BME280;13604;52.496;13.456;2022-08-11T10:18:07;102032.56;;;39.43;16.88
25759;BME280;13604;52.496;13.456;2022-08-11T10:20:56;102024.78;;;40.37;15.48
25759;BME280;13604;52.496;13.456;2022-08-11T10:23:25;102026.25;;;39.64;16.82
25759;BME280;13604;52.496;13.456;2022-08-11T10:26:11;102027.88;;;39.00;17.52
25759;BME280;13604;52.496;13.456;2022-08-11T10:28:55;102022.38;;;40.09;17.73
25759;BME280;13604;52.496;13.456;2022-08-11T10:31:21;102027.97;;;40.61;15.99
25759;BME280;13604;52.496;13.456;2022-08-11T10:34:16;102033.22;;;42.03;16.15
25759;BME280;13604;52.496;13.456;2022-08-11T10:36:43;102024.44;;;42.62;15.07
25759;BME280;13604;52.496;13.456;2022-08-11T10:39:18;102027.97;;;42.72;14.66
25759;BME280;13604;52.496;13.456;2022-08-11T10:41:46;102019.25;;;42.09;15.01
25759;BME280;13604;52.496;13.456;2022-08-11T10:44:35;102015.38;;;41.75;15.60
25759;BME280;13604;52.496;13.456;2022-08-11T10:47:03;102020.63;;;42.42;15.25
25759;BME280;13604;52.496;13.456;2022-08-11T10:49:47;102002.53;;;41.75;14.46
25759;BME280;13604;52.496;13.456;2022-08-11T10:52:34;102007.72;;;40.20;17.21
25759;BME280;13604;52.496;13.456;2022-08-11T10:55:19;102010.97;;;41.54;14.67
25759;BME280;13604;52.496;13.456;2022-08-11T10:58:03;102001.44;;;41.82;14.62
25759;BME280;13604;52.496;13.456;2022-08-11T11:00:47;101998.97;;;41.85;15.48
25759;BME280;13604;52.496;13.456;2022-08-11T11:03:13;101991.31;;;42.23;14.84
25759;BME280;13604;52.496;13.456;2022-08-11T11:05:40;101986.78;;;42.98;14.56
25759;BME280;13604;52.496;13.456;2022-08-11T11:08:12;101983.59;;;43.79;13.71
25759;BME280;13604;52.496;13.456;2022-08-11T11:10:57;101985.97;;;43.90;12.99
25759;BME280;13604;52.496;13.456;2022-08-11T11:13:24;101984.03;;;44.25;13.12
25759;BME280;13604;52.496;13.456;2022-08-11T11:16:09;101990.06;;;44.56;13.48
25759;BME280;13604;52.496;13.456;2022-08-11T11:18:56;101981.88;;;43.88;13.58
25759;BME280;13604;52.496;13.456;2022-08-11T11:21:24;101973.31;;;45.00;13.27
25759;BME280;13604;52.496;13.456;2022-08-11T11:29:34;101979.91;;;43.54;13.63
25759;BME280;13604;52.496;13.456;2022-08-11T11:37:41;101961.19;;;39.78;15.95
25759;BME280;13604;52.496;13.456;2022-08-11T11:40:13;101965.47;;;41.27;14.95
25759;BME280;13604;52.496;13.456;2022-08-11T11:42:43;101971.84;;;42.34;13.96
25759;BME280;13604;52.496;13.456;2022-08-11T11:45:11;101969.84;;;42.85;14.58
25759;BME280;13604;52.496;13.456;2022-08-11T11:47:39;101954.94;;;43.90;13.69
25759;BME280;13604;52.496;13.456;2022-08-11T11:50:07;101963.78;;;44.69;12.46
25759;BME280;13604;52.496;13.456;2022-08-11T11:52:33;101956.63;;;45.72;12.01
25759;BME280;13604;52.496;13.456;2022-08-11T11:55:00;101946.53;;;45.81;11.76
25759;BME280;13604;52.496;13.456;2022-08-11T11:57:26;101950.28;;;45.71;11.90
25759;BME280;13604;52.496;13.456;2022-08-11T12:00:11;101945.19;;;46.11;10.57
25759;BME280;13604;52.496;13.456;2022-08-11T12:02:58;101945.56;;;46.36;9.79
25759;BME280;13604;52.496;13.456;2022-08-11T12:05:26;101933.78;;;45.71;11.00
25759;BME280;13604;52.496;13.456;2022-08-11T12:07:53;101944.66;;;46.68;11.08
25759;BME280;13604;52.496;13.456;2022-08-11T12:10:44;101937.13;;;47.10;11.13
25759;BME280;13604;52.496;13.456;2022-08-11T12:13:11;101931.09;;;48.28;10.51
25759;BME280;13604;52.496;13.456;2022-08-11T12:15:56;101927.88;;;48.26;9.75
25759;BME280;13604;52.496;13.456;2022-08-11T12:18:33;101918.16;;;47.53;9.78
25759;BME280;13604;52.496;13.456;2022-08-11T12:21:01;101923.25;;;47.60;10.29
25759;BME280;13604;52.496;13.456;2022-08-11T12:23:28;101924.69;;;47.79;10.14
25759;BME280;13604;52.496;13.456;2022-08-11T12:26:13;101912.13;;;45.46;10.78
25759;BME280;13604;52.496;13.456;2022-08-11T12:28:59;101917.19;;;46.36;11.35
25759;BME280;13604;52.496;13.456;2022-08-11T12:31:27;101915.13;;;47.19;9.90
25759;BME280;13604;52.496;13.456;2022-08-11T12:33:52;101912.69;;;42.43;11.65
25759;BME280;13604;52.496;13.456;2022-08-11T12:36:23;101899.22;;;42.62;11.76
25759;BME280;13604;52.496;13.456;2022-08-11T12:38:49;101901.44;;;44.16;10.75
25759;BME280;13604;52.496;13.456;2022-08-11T12:41:16;101899.41;;;46.42;10.53
25759;BME280;13604;52.496;13.456;2022-08-11T12:44:01;101888.03;;;47.21;9.66
25759;BME280;13604;52.496;13.456;2022-08-11T12:46:46;101893.63;;;47.52;10.36
25759;BME280;13604;52.496;13.456;2022-08-11T12:49:19;101893.81;;;48.65;9.48
25759;BME280;13604;52.496;13.456;2022-08-11T12:52:07;101881.84;;;49.04;8.08
25759;BME280;13604;52.496;13.456;2022-08-11T12:57:16;101881.44;;;48.63;8.94
25759;BME280;13604;52.496;13.456;2022-08-11T13:00:04;101876.78;;;48.98;8.30
25759;BME280;13604;52.496;13.456;2022-08-11T13:02:48;101872.13;;;47.93;8.68
25759;BME280;13604;52.496;13.456;2022-08-11T13:05:33;101869.34;;;48.41;8.93
25759;BME280;13604;52.496;13.456;2022-08-11T13:08:00;101869.38;;;49.62;8.55
25759;BME280;13604;52.496;13.456;2022-08-11T13:10:27;101877.78;;;49.83;8.04
25759;BME280;13604;52.496;13.456;2022-08-11T13:13:12;101871.03;;;50.60;7.54
25759;BME280;13604;52.496;13.456;2022-08-11T13:15:38;101861.06;;;50.09;8.41
25759;BME280;13604;52.496;13.456;2022-08-11T13:18:04;101861.31;;;49.14;8.53
25759;BME280;13604;52.496;13.456;2022-08-11T13:20:35;101857.69;;;48.53;8.33
25759;BME280;13604;52.496;13.456;2022-08-11T13:23:00;101854.59;;;46.50;9.18
25759;BME280;13604;52.496;13.456;2022-08-11T13:25:30;101852.41;;;46.74;9.37
25759;BME280;13604;52.496;13.456;2022-08-11T13:27:58;101854.25;;;47.37;9.82
25759;BME280;13604;52.496;13.456;2022-08-11T13:30:27;101861.06;;;47.93;8.86
25759;BME280;13604;52.496;13.456;2022-08-11T13:33:12;101860.28;;;48.01;8.71
25759;BME280;13604;52.496;13.456;2022-08-11T13:35:42;101849.28;;;48.84;7.73
25759;BME280;13604;52.496;13.456;2022-08-11T13:38:09;101848.78;;;49.16;8.00
25759;BME280;13604;52.496;13.456;2022-08-11T13:40:39;101842.88;;;49.52;7.98
25759;BME280;13604;52.496;13.456;2022-08-11T13:43:05;101849.28;;;49.82;7.96
25759;BME280;13604;52.496;13.456;2022-08-11T13:45:32;101846.97;;;49.84;8.11
25759;BME280;13604;52.496;13.456;2022-08-11T13:47:59;101839.44;;;49.93;8.24
25759;BME280;13604;52.496;13.456;2022-08-11T13:50:25;101830.91;;;50.07;7.33
25759;BME280;13604;52.496;13.456;2022-08-11T13:53:14;101841.78;;;49.74;7.54
25759;BME280;13604;52.496;13.456;2022-08-11T13:55:41;101833.28;;;49.88;7.64
25759;BME280;13604;52.496;13.456;2022-08-11T13:58:11;101830.69;;;49.91;7.69
25759;BME280;13604;52.496;13.456;2022-08-11T14:00:37;101825.19;;;50.12;7.65
25759;BME280;13604;52.496;13.456;2022-08-11T14:03:08;101825.25;;;49.95;7.27
25759;BME280;13604;52.496;13.456;2022-08-11T14:05:45;101824.94;;;49.97;6.84
25759;BME280;13604;52.496;13.456;2022-08-11T14:08:15;101824.63;;;49.43;8.26
25759;BME280;13604;52.496;13.456;2022-08-11T14:10:43;101834.19;;;49.71;7.07
25759;BME280;13604;52.496;13.456;2022-08-11T14:13:15;101826.63;;;49.25;7.08
25759;BME280;13604;52.496;13.456;2022-08-11T14:16:03;101814.28;;;48.97;7.35
25759;BME280;13604;52.496;13.456;2022-08-11T14:18:33;101805.75;;;48.41;7.87
25759;BME280;13604;52.496;13.456;2022-08-11T14:21:02;101821.31;;;48.11;7.79
25759;BME280;13604;52.496;13.456;2022-08-11T14:23:50;101810.75;;;47.74;8.48
25759;BME280;13604;52.496;13.456;2022-08-11T14:26:20;101812.31;;;48.63;7.02
25759;BME280;13604;52.496;13.456;2022-08-11T14:28:53;101806.16;;;48.00;8.28
25759;BME280;13604;52.496;13.456;2022-08-11T14:31:26;101801.50;;;48.09;7.55
25759;BME280;13604;52.496;13.456;2022-08-11T14:33:54;101801.91;;;48.68;7.26
25759;BME280;13604;52.496;13.456;2022-08-11T14:36:25;101795.22;;;48.52;7.59
25759;BME280;13604;52.496;13.456;2022-08-11T14:38:53;101801.13;;;48.94;7.82
25759;BME280;13604;52.496;13.456;2022-08-11T14:41:20;101798.41;;;48.11;7.52
25759;BME280;13604;52.496;13.456;2022-08-11T14:44:05;101793.94;;;48.58;8.31
25759;BME280;13604;52.496;13.456;2022-08-11T14:46:51;101792.47;;;47.25;8.76
25759;BME280;13604;52.496;13.456;2022-08-11T14:49:31;101800.50;;;44.27;10.49
25759;BME280;13604;52.496;13.456;2022-08-11T14:51:59;101786.59;;;41.84;12.23
25759;BME280;13604;52.496;13.456;2022-08-11T14:54:29;101780.09;;;39.42;13.10
25759;BME280;13604;52.496;13.456;2022-08-11T14:57:15;101791.44;;;38.15;14.02
25759;BME280;13604;52.496;13.456;2022-08-11T14:59:42;101790.78;;;36.67;15.43
25759;BME280;13604;52.496;13.456;2022-08-11T15:02:08;101790.59;;;36.45;16.07
25759;BME280;13604;52.496;13.456;2022-08-11T15:04:52;101775.97;;;35.30;16.01
25759;BME280;13604;52.496;13.456;2022-08-11T15:07:20;101779.94;;;34.49;17.11
25759;BME280;13604;52.496;13.456;2022-08-11T15:09:56;101773.94;;;33.61;18.30
25759;BME280;13604;52.496;13.456;2022-08-11T15:12:23;101776.34;;;33.13;19.08
25759;BME280;13604;52.496;13.456;2022-08-11T15:14:49;101775.66;;;32.86;18.29
25759;BME280;13604;52.496;13.456;2022-08-11T15:17:34;101781.47;;;32.32;19.45
25759;BME280;13604;52.496;13.456;2022-08-11T15:20:07;101770.50;;;32.13;19.55
25759;BME280;13604;52.496;13.456;2022-08-11T15:22:52;101778.19;;;31.97;19.56
25759;BME280;13604;52.496;13.456;2022-08-11T15:25:37;101767.59;;;31.42;19.51
25759;BME280;13604;52.496;13.456;2022-08-11T15:28:06;101763.00;;;31.17;20.30
25759;BME280;13604;52.496;13.456;2022-08-11T15:30:53;101767.53;;;31.03;20.62
25759;BME280;13604;52.496;13.456;2022-08-11T15:33:39;101766.22;;;30.86;20.59
25759;BME280;13604;52.496;13.456;2022-08-11T15:36:25;101756.50;;;30.78;20.55
25759;BME280;13604;52.496;13.456;2022-08-11T15:39:18;101763.06;;;30.69;20.50
25759;BME280;13604;52.496;13.456;2022-08-11T15:41:57;101763.03;;;30.62;19.21
25759;BME280;13604;52.496;13.456;2022-08-11T15:44:53;101767.38;;;30.29;20.46
25759;BME280;13604;52.496;13.456;2022-08-11T15:47:43;101763.22;;;30.20;20.42
25759;BME280;13604;52.496;13.456;2022-08-11T15:50:13;101763.56;;;30.10;20.74
25759;BME280;13604;52.496;13.456;2022-08-11T15:53:05;101764.13;;;29.99;21.11
25759;BME280;13604;52.496;13.456;2022-08-11T15:55:34;101757.94;;;29.77;21.71
25759;BME280;13604;52.496;13.456;2022-08-11T15:58:02;101756.44;;;29.68;21.52
25759;BME280;13604;52.496;13.456;2022-08-11T16:00:48;101751.44;;;29.65;21.69
25759;BME280;13604;52.496;13.456;2022-08-11T16:03:40;101751.88;;;29.68;21.10
25759;BME280;13604;52.496;13.456;2022-08-11T16:06:25;101752.47;;;29.64;21.30
25759;BME280;13604;52.496;13.456;2022-08-11T16:08:52;101749.09;;;29.55;22.33
25759;BME280;13604;52.496;13.456;2022-08-11T16:11:22;101746.13;;;29.50;21.96
25759;BME280;13604;52.496;13.456;2022-08-11T16:13:49;101749.56;;;29.38;21.87
25759;BME280;13604;52.496;13.456;2022-08-11T16:16:35;101740.91;;;29.21;21.17
25759;BME280;13604;52.496;13.456;2022-08-11T16:19:02;101742.56;;;29.22;20.00
25759;BME280;13604;52.496;13.456;2022-08-11T16:21:31;101734.97;;;29.04;20.13
25759;BME280;13604;52.496;13.456;2022-08-11T16:23:58;101749.63;;;29.08;20.96
25759;BME280;13604;52.496;13.456;2022-08-11T16:26:26;101743.44;;;29.08;20.06